createdAt,value
2023-09-26T00:04:31.243Z,9.88
2023-09-26T00:09:32.921Z,10.65
2023-09-26T00:14:34.468Z,5.53
2023-09-26T00:19:36.076Z,6.68
2023-09-26T00:24:37.446Z,6.45
2023-09-26T00:29:38.886Z,5.60
2023-09-26T00:34:40.326Z,5.28
2023-09-26T00:39:41.904Z,7.20
2023-09-26T00:44:43.324Z,6.82
2023-09-26T00:49:44.775Z,6.70
2023-09-26T00:54:46.542Z,6.03
2023-09-26T00:59:48.570Z,6.80
2023-09-26T01:04:50.730Z,10.98
2023-09-26T01:09:52.267Z,9.18
2023-09-26T01:14:55.392Z,5.90
2023-09-26T01:19:56.897Z,5.35
2023-09-26T01:24:59.389Z,8.68
2023-09-26T01:30:00.849Z,4.20
2023-09-26T01:35:02.236Z,5.53
2023-09-26T01:40:04.063Z,4.00
2023-09-26T01:45:06.059Z,7.53
2023-09-26T01:50:07.939Z,6.35
2023-09-26T01:55:20.018Z,4.93
2023-09-26T02:00:21.508Z,4.75
2023-09-26T02:05:23.112Z,5.55
2023-09-26T02:10:24.593Z,9.43
2023-09-26T02:15:26.055Z,23.55
2023-09-26T02:20:27.568Z,192.02
2023-09-26T02:25:29.795Z,19.60
2023-09-26T02:30:31.343Z,9.90
2023-09-26T02:35:32.864Z,7.68
2023-09-26T02:40:34.301Z,77.32
2023-09-26T02:45:35.752Z,42.72
2023-09-26T02:50:37.258Z,7.60
2023-09-26T02:55:41.440Z,15.40
2023-09-26T03:00:42.816Z,143.95
2023-09-26T03:05:51.931Z,245.68
2023-09-26T03:10:53.270Z,429.67
2023-09-26T03:15:58.030Z,542.70
2023-09-26T03:21:02.992Z,501.05
2023-09-26T03:26:14.079Z,16.38
2023-09-26T03:31:15.678Z,32.97
2023-09-26T03:36:18.659Z,24.30
2023-09-26T03:41:20.216Z,28.65
2023-09-26T03:46:21.683Z,54.92
2023-09-26T03:51:23.108Z,4.65
2023-09-26T03:56:24.606Z,6.40
2023-09-26T04:01:26.144Z,12.23
2023-09-26T04:06:27.637Z,8.68
2023-09-26T04:11:29.088Z,33.42
2023-09-26T04:16:30.842Z,18.23
2023-09-26T04:21:32.488Z,41.95
2023-09-26T04:26:33.988Z,40.15
2023-09-26T04:31:35.504Z,10.38
2023-09-26T04:36:36.990Z,12.80
2023-09-26T04:41:38.367Z,8.77
2023-09-26T04:46:39.824Z,7.50
2023-09-26T04:51:41.355Z,7.47
2023-09-26T04:56:42.768Z,14.23
2023-09-26T05:01:47.125Z,9.82
2023-09-26T05:06:48.588Z,10.48
2023-09-26T05:11:50.230Z,9.88
2023-09-26T05:16:52.491Z,8.13
2023-09-26T05:21:54.025Z,8.32
2023-09-26T05:26:55.559Z,19.55
2023-09-26T05:31:57.017Z,10.32
2023-09-26T05:36:58.700Z,13.15
2023-09-26T05:42:00.100Z,9.88
2023-09-26T05:47:01.653Z,9.40
2023-09-26T05:52:03.428Z,9.40
2023-09-26T05:57:04.981Z,12.00
2023-09-26T06:02:09.118Z,10.07
2023-09-26T06:07:11.116Z,11.23
2023-09-26T06:12:12.833Z,11.02
2023-09-26T06:17:14.368Z,13.02
2023-09-26T06:22:16.196Z,12.55
2023-09-26T06:27:17.959Z,13.65
2023-09-26T06:32:19.510Z,13.52
2023-09-26T06:37:20.995Z,12.02
2023-09-26T06:42:22.610Z,14.77
2023-09-26T06:47:24.086Z,14.55
2023-09-26T06:52:25.605Z,14.70
2023-09-26T06:57:27.110Z,14.50
2023-09-26T07:02:28.697Z,16.42
2023-09-26T07:07:31.031Z,14.20
2023-09-26T07:12:32.515Z,13.05
2023-09-26T07:17:36.254Z,15.30
2023-09-26T07:22:39.577Z,13.35
2023-09-26T07:27:40.996Z,16.23
2023-09-26T07:32:42.570Z,16.77
2023-09-26T07:37:44.021Z,13.05
2023-09-26T07:42:45.470Z,10.77
2023-09-26T07:47:47.085Z,11.15
2023-09-26T07:52:48.796Z,10.00
2023-09-26T07:57:50.221Z,10.48
2023-09-26T08:02:51.820Z,10.40
2023-09-26T08:07:53.432Z,8.18
2023-09-26T08:12:54.980Z,8.98
2023-09-26T08:17:56.554Z,9.88
2023-09-26T08:22:58.278Z,7.38
2023-09-26T08:27:59.719Z,7.80
2023-09-26T08:33:01.221Z,9.63
2023-09-26T08:38:02.721Z,9.02
2023-09-26T08:43:04.903Z,7.03
2023-09-26T08:48:07.200Z,8.27
2023-09-26T08:53:08.655Z,5.70
2023-09-26T08:58:10.370Z,10.93
2023-09-26T09:03:13.736Z,10.05
2023-09-26T09:08:22.818Z,8.50
2023-09-26T09:13:30.277Z,7.65
2023-09-26T09:18:31.837Z,7.07
2023-09-26T09:23:46.494Z,8.07
2023-09-26T09:28:48.630Z,6.65
2023-09-26T09:33:51.460Z,7.60
2023-09-26T09:38:53.451Z,6.53
2023-09-26T09:43:55.212Z,5.70
2023-09-26T09:48:59.490Z,5.00
2023-09-26T09:54:01.431Z,7.93
2023-09-26T09:59:05.533Z,6.82
2023-09-26T10:04:07.753Z,7.75
2023-09-26T10:09:11.002Z,9.02
2023-09-26T10:14:21.865Z,10.52
2023-09-26T10:19:33.454Z,7.47
2023-09-26T10:24:52.996Z,6.78
2023-09-26T10:29:56.250Z,10.70
2023-09-26T10:34:58.576Z,7.32
2023-09-26T10:40:00.020Z,9.65
2023-09-26T10:45:01.498Z,6.18
2023-09-26T10:50:03.040Z,6.65
2023-09-26T10:55:04.901Z,4.55
2023-09-26T11:00:11.776Z,6.55
2023-09-26T11:05:16.197Z,5.13
2023-09-26T11:10:18.373Z,5.82
2023-09-26T11:15:20.255Z,7.75
2023-09-26T11:20:22.270Z,6.97
2023-09-26T11:25:23.712Z,4.82
2023-09-26T11:30:25.566Z,14.20
2023-09-26T11:35:27.458Z,4.72
2023-09-26T11:40:29.463Z,7.18
2023-09-26T11:45:32.011Z,4.85
2023-09-26T11:50:36.191Z,5.10
2023-09-26T11:55:37.685Z,5.18
2023-09-26T12:00:39.143Z,8.73
2023-09-26T12:05:40.744Z,4.82
2023-09-26T12:10:44.278Z,6.07
2023-09-26T12:15:46.058Z,8.68
2023-09-26T12:20:47.873Z,7.00
2023-09-26T12:25:49.484Z,4.72
2023-09-26T12:30:51.235Z,8.57
2023-09-26T12:35:52.630Z,6.38
2023-09-26T12:40:54.684Z,4.80
2023-09-26T12:45:56.391Z,5.18
2023-09-26T12:50:58.443Z,5.60
2023-09-26T12:56:00.193Z,5.38
2023-09-26T13:01:01.703Z,6.25
2023-09-26T13:06:03.427Z,5.20
2023-09-26T13:11:06.192Z,5.97
2023-09-26T13:16:08.764Z,5.60
2023-09-26T13:21:10.236Z,5.72
2023-09-26T13:26:12.237Z,5.78
2023-09-26T13:31:13.818Z,6.80
2023-09-26T13:36:15.686Z,11.60
2023-09-26T13:41:17.211Z,6.70
2023-09-26T13:46:19.405Z,3.00
2023-09-26T13:51:20.907Z,5.13
2023-09-26T13:56:22.371Z,4.78
2023-09-26T14:01:24.793Z,8.55
2023-09-26T14:06:26.532Z,6.78
2023-09-26T14:11:28.147Z,4.85
2023-09-26T14:16:31.365Z,3.50
2023-09-26T14:21:35.129Z,4.65
2023-09-26T14:26:36.551Z,3.97
2023-09-26T14:31:38.027Z,4.03
2023-09-26T14:36:39.499Z,4.85
2023-09-26T14:41:40.971Z,6.03
2023-09-26T14:46:42.492Z,6.03
2023-09-26T14:51:44.578Z,5.15
2023-09-26T14:56:46.086Z,5.25
2023-09-26T15:01:47.735Z,3.13
2023-09-26T15:06:49.208Z,6.78
2023-09-26T15:11:50.648Z,3.88
2023-09-26T15:16:52.086Z,4.18
2023-09-26T15:21:53.651Z,41.35
2023-09-26T15:26:55.118Z,9.60
2023-09-26T15:31:56.612Z,5.32
2023-09-26T15:36:58.116Z,4.97
2023-09-26T15:41:59.927Z,5.30
2023-09-26T15:47:01.447Z,4.72
2023-09-26T15:52:03.295Z,5.82
2023-09-26T15:57:05.332Z,6.38
2023-09-26T16:02:09.484Z,5.05
2023-09-26T16:07:11.476Z,5.15
2023-09-26T16:12:13.000Z,4.75
2023-09-26T16:17:14.588Z,5.25
2023-09-26T16:22:16.655Z,6.93
2023-09-26T16:27:19.446Z,5.95
2023-09-26T16:32:21.205Z,7.68
2023-09-26T16:37:22.852Z,6.00
2023-09-26T16:42:24.555Z,7.30
2023-09-26T16:47:26.241Z,5.93
2023-09-26T16:52:27.668Z,7.97
2023-09-26T16:57:29.139Z,4.32
2023-09-26T17:02:32.231Z,8.30
2023-09-26T17:07:34.868Z,6.93
2023-09-26T17:12:36.426Z,6.03
2023-09-26T17:17:37.862Z,7.25
2023-09-26T17:22:39.386Z,15.05
2023-09-26T17:27:40.822Z,7.18
2023-09-26T17:32:43.178Z,6.97
2023-09-26T17:37:47.093Z,7.93
2023-09-26T17:42:48.478Z,8.00
2023-09-26T17:47:50.157Z,5.97
2023-09-26T17:52:52.633Z,6.85
2023-09-26T17:57:54.066Z,7.43
2023-09-26T18:02:55.598Z,7.60
2023-09-26T18:07:57.496Z,10.63
2023-09-26T18:12:58.940Z,7.65
2023-09-26T18:18:00.397Z,9.32
2023-09-26T18:23:02.357Z,6.68
2023-09-26T18:28:04.312Z,10.82
2023-09-26T18:33:05.795Z,7.22
2023-09-26T18:38:07.370Z,7.22
2023-09-26T18:43:08.833Z,15.50
2023-09-26T18:48:10.339Z,11.45
2023-09-26T18:53:12.058Z,15.57
2023-09-26T18:58:13.629Z,10.05
2023-09-26T19:03:15.263Z,10.77
2023-09-26T19:08:16.930Z,10.70
2023-09-26T19:13:18.585Z,9.73
2023-09-26T19:18:20.199Z,8.80
2023-09-26T19:23:21.824Z,12.25
2023-09-26T19:28:23.399Z,9.13
2023-09-26T19:33:25.038Z,11.95
2023-09-26T19:38:26.522Z,11.00
2023-09-26T19:43:30.589Z,22.83
2023-09-26T19:48:32.160Z,12.30
2023-09-26T19:53:33.601Z,11.52
2023-09-26T19:58:35.106Z,21.52
2023-09-26T20:03:36.628Z,8.13
2023-09-26T20:08:38.155Z,21.00
2023-09-26T20:13:39.988Z,10.55
2023-09-26T20:18:41.860Z,12.30
2023-09-26T20:23:43.356Z,10.10
2023-09-26T20:28:46.215Z,20.40
2023-09-26T20:33:49.476Z,8.90
2023-09-26T20:38:50.915Z,12.98
2023-09-26T20:43:52.692Z,14.45
2023-09-26T20:48:54.648Z,10.35
2023-09-26T20:53:56.399Z,12.05
2023-09-26T20:58:57.858Z,11.18
2023-09-26T21:03:59.402Z,12.07
2023-09-26T21:09:00.810Z,9.00
2023-09-26T21:14:02.613Z,11.07
2023-09-26T21:19:04.322Z,9.05
2023-09-26T21:24:06.598Z,8.98
2023-09-26T21:29:08.165Z,8.73
2023-09-26T21:34:09.618Z,9.55
2023-09-26T21:39:11.304Z,12.50
2023-09-26T21:44:13.126Z,10.90
2023-09-26T21:49:14.594Z,8.35
2023-09-26T21:54:16.245Z,7.75
2023-09-26T21:59:18.026Z,7.70
2023-09-26T22:04:19.596Z,8.50
2023-09-26T22:09:21.093Z,10.63
2023-09-26T22:14:22.569Z,11.15
2023-09-26T22:19:24.161Z,10.38
2023-09-26T22:24:25.869Z,13.00
2023-09-26T22:29:27.348Z,8.85
2023-09-26T22:34:28.826Z,13.48
2023-09-26T22:39:30.328Z,8.88
2023-09-26T22:44:31.880Z,8.98
2023-09-26T22:49:33.381Z,7.85
2023-09-26T22:54:35.723Z,8.63
2023-09-26T22:59:37.329Z,12.85
2023-09-26T23:04:38.771Z,10.13
2023-09-26T23:09:40.547Z,13.15
2023-09-26T23:14:41.917Z,6.45
2023-09-26T23:19:43.433Z,13.48
2023-09-26T23:24:45.530Z,9.48
2023-09-26T23:29:46.919Z,8.30
2023-09-26T23:34:48.314Z,7.70
2023-09-26T23:39:49.779Z,11.13
2023-09-26T23:44:51.238Z,10.32
2023-09-26T23:49:53.008Z,15.35
2023-09-26T23:54:54.430Z,9.85
2023-09-26T23:59:55.837Z,9.05
